Time;durP1;ratioP1;P1;durP2;ratioP2;P2;SDS_P1;SDS_P2;PMS_P1;PMS_P2;Temp;Humidity;BMP_temperature;BMP_pressure;BME280_temperature;BME280_humidity;BME280_pressure;Samples;Min_cycle;Max_cycle;Signal;HPM_P1;HPM_P2
2021/09/22 00:01:57;;;;;;;11.98;8.20;;;;;;;-148.22;100.00;64452.44;4971074;28;20022;-72
2021/09/22 00:04:22;;;;;;;12.85;8.43;;;;;;;-148.22;100.00;64452.44;4967043;28;20073;-72
2021/09/22 00:06:47;;;;;;;12.38;8.15;;;;;;;-148.22;100.00;64452.44;4966587;28;20054;-74
2021/09/22 00:09:13;;;;;;;12.45;8.23;;;;;;;-148.22;100.00;64452.44;4966986;28;20106;-73
2021/09/22 00:11:38;;;;;;;11.68;8.02;;;;;;;-148.22;100.00;64452.44;4966113;28;20037;-74
2021/09/22 00:14:04;;;;;;;10.90;7.93;;;;;;;-148.22;100.00;64452.44;4964825;28;20031;-72
2021/09/22 00:16:29;;;;;;;13.45;7.68;;;;;;;-148.22;100.00;64452.44;4964551;28;20011;-72
2021/09/22 00:18:54;;;;;;;10.40;7.15;;;;;;;-148.22;100.00;64452.44;4966423;28;20050;-72
2021/09/22 00:21:20;;;;;;;14.13;9.10;;;;;;;-148.22;100.00;64452.44;4963893;28;20030;-72
2021/09/22 00:23:46;;;;;;;11.48;8.30;;;;;;;-148.22;100.00;64452.44;4959740;28;20396;-72
2021/09/22 00:26:11;;;;;;;13.90;8.45;;;;;;;-148.22;100.00;64452.44;4959999;28;20031;-73
2021/09/22 00:28:37;;;;;;;13.15;7.78;;;;;;;-148.22;100.00;64452.44;4964226;28;20038;-72
2021/09/22 00:31:02;;;;;;;12.18;8.18;;;;;;;-148.22;100.00;64452.44;4965870;28;20027;-73
2021/09/22 00:33:28;;;;;;;11.75;7.82;;;;;;;-148.22;100.00;64452.44;4965468;28;20037;-73
2021/09/22 00:35:53;;;;;;;15.25;8.40;;;;;;;-148.22;100.00;64452.44;4965518;28;20400;-73
2021/09/22 00:38:18;;;;;;;11.90;8.10;;;;;;;-148.22;100.00;64452.44;4965774;28;20034;-72
2021/09/22 00:40:44;;;;;;;11.32;7.90;;;;;;;-148.22;100.00;64452.44;4965475;28;20319;-72
2021/09/22 00:43:09;;;;;;;12.88;8.15;;;;;;;-148.22;100.00;64452.44;4964380;28;20077;-73
2021/09/22 00:45:35;;;;;;;13.80;8.52;;;;;;;-148.22;100.00;64452.44;4965675;28;20092;-73
2021/09/22 00:48:00;;;;;;;12.45;8.48;;;;;;;-148.22;100.00;64452.44;4966108;28;20131;-73
2021/09/22 00:50:25;;;;;;;16.45;9.38;;;;;;;-148.22;100.00;64452.44;4965190;28;20145;-72
2021/09/22 00:52:51;;;;;;;14.30;8.27;;;;;;;-148.22;100.00;64452.44;4965784;28;20050;-74
2021/09/22 00:55:16;;;;;;;12.50;8.32;;;;;;;-148.22;100.00;64452.44;4964529;28;20511;-72
2021/09/22 00:57:50;;;;;;;14.43;8.20;;;;;;;-148.22;100.00;64452.44;4974139;28;20076;-72
2021/09/22 01:00:18;;;;;;;12.85;8.10;;;;;;;-148.22;100.00;64452.44;4978505;28;20539;-72
2021/09/22 01:02:47;;;;;;;12.95;8.70;;;;;;;-148.22;100.00;64452.44;4964369;28;20476;-73
2021/09/22 01:05:14;;;;;;;12.70;8.98;;;;;;;-148.22;100.00;64452.44;4963731;28;20427;-72
2021/09/22 01:07:39;;;;;;;14.13;8.65;;;;;;;-148.22;100.00;64452.44;4964503;28;20038;-72
2021/09/22 01:10:05;;;;;;;18.00;9.07;;;;;;;-148.22;100.00;64452.44;4965510;28;20035;-72
2021/09/22 01:12:30;;;;;;;14.75;9.52;;;;;;;-148.22;100.00;64452.44;4972407;28;20026;-72
2021/09/22 01:14:56;;;;;;;14.30;8.80;;;;;;;-148.22;100.00;64452.44;4979118;28;20026;-72
2021/09/22 01:17:21;;;;;;;14.65;8.60;;;;;;;-148.22;100.00;64452.44;4968319;28;20039;-73
2021/09/22 01:19:46;;;;;;;14.02;9.43;;;;;;;-148.22;100.00;64452.44;4974205;28;20610;-74
2021/09/22 01:22:17;;;;;;;15.48;9.13;;;;;;;-148.22;100.00;64452.44;4963375;28;20026;-72
2021/09/22 01:24:42;;;;;;;11.88;8.68;;;;;;;-148.22;100.00;64452.44;4965042;28;20027;-74
2021/09/22 01:27:08;;;;;;;12.80;8.70;;;;;;;-148.22;100.00;64452.44;4958908;28;20090;-74
2021/09/22 01:29:34;;;;;;;13.70;8.70;;;;;;;-148.22;100.00;64452.44;4948777;28;20041;-71
2021/09/22 01:31:59;;;;;;;13.30;8.02;;;;;;;-148.22;100.00;64452.44;4965017;28;20058;-71
2021/09/22 01:34:24;;;;;;;14.30;9.32;;;;;;;-148.22;100.00;64452.44;4963964;28;20077;-71
2021/09/22 01:36:50;;;;;;;13.10;8.55;;;;;;;-148.22;100.00;64452.44;4963729;28;20069;-75
2021/09/22 01:39:15;;;;;;;14.05;8.38;;;;;;;-148.22;100.00;64452.44;4963904;28;20318;-74
2021/09/22 01:41:40;;;;;;;11.02;7.78;;;;;;;-148.22;100.00;64452.44;4964652;28;20073;-74
2021/09/22 01:44:06;;;;;;;13.68;8.50;;;;;;;-148.22;100.00;64452.44;4965345;28;20045;-71
2021/09/22 01:46:31;;;;;;;16.15;8.82;;;;;;;-148.22;100.00;64452.44;4964996;28;20034;-74
2021/09/22 01:48:56;;;;;;;12.55;7.40;;;;;;;-148.22;100.00;64452.44;4964919;28;20033;-72
2021/09/22 01:51:22;;;;;;;13.40;8.82;;;;;;;-148.22;100.00;64452.44;4963114;28;20019;-72
2021/09/22 01:53:47;;;;;;;15.32;9.25;;;;;;;-148.22;100.00;64452.44;4966307;28;20105;-71
2021/09/22 01:56:13;;;;;;;14.68;9.75;;;;;;;-148.22;100.00;64452.44;4967208;28;20027;-74
2021/09/22 01:58:38;;;;;;;15.85;9.18;;;;;;;-148.22;100.00;64452.44;4978272;28;20294;-73
2021/09/22 02:01:08;;;;;;;14.38;8.90;;;;;;;-148.22;100.00;64452.44;4967465;28;20502;-74
2021/09/22 02:03:34;;;;;;;14.45;9.45;;;;;;;-148.22;100.00;64452.44;4967620;28;20122;-73
2021/09/22 02:05:59;;;;;;;17.52;9.63;;;;;;;-148.22;100.00;64452.44;4966878;28;20650;-73
2021/09/22 02:08:25;;;;;;;14.13;8.57;;;;;;;-148.22;100.00;64452.44;4965889;28;20070;-73
2021/09/22 02:10:50;;;;;;;15.02;9.55;;;;;;;-148.22;100.00;64452.44;4966225;28;20027;-74
2021/09/22 02:13:16;;;;;;;13.52;8.63;;;;;;;-148.22;100.00;64452.44;4965909;28;20030;-72
2021/09/22 02:15:41;;;;;;;15.07;9.27;;;;;;;-148.22;100.00;64452.44;4958704;28;20667;-73
2021/09/22 02:18:08;;;;;;;14.63;9.48;;;;;;;-148.22;100.00;64452.44;4950879;28;20022;-73
2021/09/22 02:20:34;;;;;;;15.32;9.50;;;;;;;-148.22;100.00;64452.44;4968504;28;20027;-73
2021/09/22 02:22:59;;;;;;;13.52;9.13;;;;;;;-148.22;100.00;64452.44;4966757;28;20362;-73
2021/09/22 02:25:24;;;;;;;16.67;10.70;;;;;;;-148.22;100.00;64452.44;4967048;28;20038;-74
2021/09/22 02:27:50;;;;;;;14.80;9.45;;;;;;;-148.22;100.00;64452.44;4967063;28;20042;-74
2021/09/22 02:30:18;;;;;;;15.02;9.50;;;;;;;-148.22;100.00;64452.44;4966211;28;20527;-73
2021/09/22 02:32:44;;;;;;;16.08;9.82;;;;;;;-148.22;100.00;64452.44;4967098;28;20058;-74
2021/09/22 02:35:10;;;;;;;18.95;10.30;;;;;;;-148.22;100.00;64452.44;4966997;28;20034;-74
2021/09/22 02:37:36;;;;;;;15.35;9.32;;;;;;;-148.22;100.00;64452.44;4966517;28;20050;-74
2021/09/22 02:40:05;;;;;;;14.63;9.32;;;;;;;-148.22;100.00;64452.44;4965223;28;20035;-73
2021/09/22 02:42:31;;;;;;;16.58;9.27;;;;;;;-148.22;100.00;64452.44;4966055;28;20495;-73
2021/09/22 02:44:56;;;;;;;14.82;9.60;;;;;;;-148.22;100.00;64452.44;4966986;28;20121;-72
2021/09/22 02:47:21;;;;;;;15.07;9.18;;;;;;;-148.22;100.00;64452.44;4968137;28;20399;-72
2021/09/22 02:49:47;;;;;;;15.15;9.95;;;;;;;-148.22;100.00;64452.44;4966943;28;20118;-73
2021/09/22 02:52:13;;;;;;;14.80;9.45;;;;;;;-148.22;100.00;64452.44;4967927;28;20027;-73
2021/09/22 02:54:38;;;;;;;14.45;8.02;;;;;;;-148.22;100.00;64452.44;4967233;28;20039;-73
2021/09/22 02:57:04;;;;;;;17.38;10.32;;;;;;;-148.22;100.00;64452.44;4965939;28;20029;-72
2021/09/22 02:59:29;;;;;;;13.27;9.25;;;;;;;-148.22;100.00;64452.44;4966840;28;20511;-72
2021/09/22 03:01:55;;;;;;;16.48;9.73;;;;;;;-148.22;100.00;64452.44;4966251;28;20480;-72
2021/09/22 03:04:21;;;;;;;16.20;9.13;;;;;;;-148.22;100.00;64452.44;4967161;28;20117;-72
2021/09/22 03:06:46;;;;;;;14.82;9.48;;;;;;;-148.22;100.00;64452.44;4966166;28;20514;-72
2021/09/22 03:09:12;;;;;;;15.48;9.05;;;;;;;-148.22;100.00;64452.44;4964407;28;20038;-72
2021/09/22 03:11:37;;;;;;;23.30;9.23;;;;;;;-148.22;100.00;64452.44;4965090;28;20034;-72
2021/09/22 03:14:03;;;;;;;14.98;8.55;;;;;;;-148.22;100.00;64452.44;4958486;28;20477;-71
2021/09/22 03:16:31;;;;;;;13.57;8.48;;;;;;;-148.22;100.00;64452.44;4974712;28;20480;-72
2021/09/22 03:18:57;;;;;;;13.18;9.27;;;;;;;-148.22;100.00;64452.44;4971058;28;20117;-72
2021/09/22 03:21:22;;;;;;;17.42;9.88;;;;;;;-148.22;100.00;64452.44;4966381;28;20508;-72
2021/09/22 03:23:48;;;;;;;13.27;8.35;;;;;;;-148.22;100.00;64452.44;4967917;28;20046;-72
2021/09/22 03:26:13;;;;;;;14.18;9.13;;;;;;;-148.22;100.00;64452.44;4966859;28;20130;-71
2021/09/22 03:28:38;;;;;;;13.63;9.30;;;;;;;-148.22;100.00;64452.44;4966927;28;20484;-72
2021/09/22 03:31:04;;;;;;;14.60;9.75;;;;;;;-148.22;100.00;64452.44;4965757;28;20077;-71
2021/09/22 03:33:29;;;;;;;15.13;9.45;;;;;;;-148.22;100.00;64452.44;4967051;28;20037;-71
2021/09/22 03:35:54;;;;;;;15.82;9.38;;;;;;;-148.22;100.00;64452.44;4967792;28;20085;-72
2021/09/22 03:38:20;;;;;;;22.48;11.18;;;;;;;-148.22;100.00;64452.44;4965478;28;20034;-72
2021/09/22 03:40:45;;;;;;;15.35;9.98;;;;;;;-148.22;100.00;64452.44;4966481;28;20066;-71
2021/09/22 03:43:11;;;;;;;14.32;9.02;;;;;;;-148.22;100.00;64452.44;4967451;28;20027;-72
2021/09/22 03:45:36;;;;;;;17.77;9.93;;;;;;;-148.22;100.00;64452.44;4966769;28;20030;-72
2021/09/22 03:48:02;;;;;;;15.00;8.93;;;;;;;-148.22;100.00;64452.44;4966898;28;20167;-71
2021/09/22 03:50:27;;;;;;;13.15;8.88;;;;;;;-148.22;100.00;64452.44;4965299;28;20151;-73
2021/09/22 03:52:52;;;;;;;13.57;9.10;;;;;;;-148.22;100.00;64452.44;4966617;28;20030;-73
2021/09/22 03:55:18;;;;;;;15.73;10.15;;;;;;;-148.22;100.00;64452.44;4965478;28;20041;-72
2021/09/22 03:57:43;;;;;;;16.50;10.13;;;;;;;-148.22;100.00;64452.44;4975689;28;20032;-73
2021/09/22 04:00:09;;;;;;;15.75;9.57;;;;;;;-148.22;100.00;64452.44;4967801;28;20038;-72
2021/09/22 04:02:35;;;;;;;34.75;19.20;;;;;;;-148.22;100.00;64452.44;4964519;28;20043;-72
2021/09/22 04:05:00;;;;;;;15.48;10.15;;;;;;;-148.22;100.00;64452.44;4967193;28;20567;-72
2021/09/22 04:07:25;;;;;;;17.08;9.20;;;;;;;-148.22;100.00;64452.44;4966135;28;20034;-72
2021/09/22 04:09:51;;;;;;;15.85;9.70;;;;;;;-148.22;100.00;64452.44;4965820;28;20058;-72
2021/09/22 04:12:16;;;;;;;14.73;9.60;;;;;;;-148.22;100.00;64452.44;4966304;28;20023;-72
2021/09/22 04:14:41;;;;;;;14.50;9.05;;;;;;;-148.22;100.00;64452.44;4965990;28;20047;-73
2021/09/22 04:17:07;;;;;;;14.98;9.38;;;;;;;-148.22;100.00;64452.44;4965038;28;20088;-73
2021/09/22 04:19:34;;;;;;;15.25;9.77;;;;;;;-148.22;100.00;64452.44;4966628;28;20098;-71
2021/09/22 04:21:59;;;;;;;16.30;9.63;;;;;;;-148.22;100.00;64452.44;4948076;28;20027;-72
2021/09/22 04:24:25;;;;;;;18.33;11.35;;;;;;;-148.22;100.00;64452.44;4964893;28;20038;-71
2021/09/22 04:26:50;;;;;;;20.67;11.93;;;;;;;-148.22;100.00;64452.44;4966230;28;20031;-72
2021/09/22 04:29:16;;;;;;;18.60;11.32;;;;;;;-148.22;100.00;64452.44;4966048;28;20035;-73
2021/09/22 04:31:42;;;;;;;16.70;10.63;;;;;;;-148.22;100.00;64452.44;4966068;28;20076;-72
2021/09/22 04:34:08;;;;;;;16.35;10.02;;;;;;;-148.22;100.00;64452.44;4965358;28;20034;-73
2021/09/22 04:36:33;;;;;;;19.20;10.20;;;;;;;-148.22;100.00;64452.44;4964391;28;20039;-73
2021/09/22 04:38:58;;;;;;;16.88;10.35;;;;;;;-148.22;100.00;64452.44;4962896;28;20031;-72
2021/09/22 04:41:24;;;;;;;17.15;10.15;;;;;;;-148.22;100.00;64452.44;4964321;28;20039;-73
2021/09/22 04:43:49;;;;;;;16.77;10.32;;;;;;;-148.22;100.00;64452.44;4954789;28;20089;-72
2021/09/22 04:46:15;;;;;;;17.00;10.60;;;;;;;-148.22;100.00;64452.44;4966019;28;20133;-72
2021/09/22 04:48:41;;;;;;;16.67;9.50;;;;;;;-148.22;100.00;64452.44;4965483;28;20033;-73
2021/09/22 04:51:07;;;;;;;17.45;10.10;;;;;;;-148.22;100.00;64452.44;4963789;28;20030;-73
2021/09/22 04:53:32;;;;;;;16.83;10.02;;;;;;;-148.22;100.00;64452.44;4959889;28;20029;-73
2021/09/22 04:55:57;;;;;;;16.55;10.23;;;;;;;-148.22;100.00;64452.44;4963915;28;20023;-72
2021/09/22 04:58:23;;;;;;;16.67;11.02;;;;;;;-148.22;100.00;64452.44;4964137;28;20130;-74
2021/09/22 05:00:48;;;;;;;17.30;10.07;;;;;;;-148.22;100.00;64452.44;4965333;28;20027;-73
2021/09/22 05:03:15;;;;;;;18.88;11.32;;;;;;;-148.22;100.00;64452.44;4965665;28;20043;-72
2021/09/22 05:05:41;;;;;;;16.92;10.65;;;;;;;-148.22;100.00;64452.44;4964397;28;20031;-74
2021/09/22 05:08:06;;;;;;;16.55;10.68;;;;;;;-148.22;100.00;64452.44;4964622;28;20023;-72
2021/09/22 05:10:31;;;;;;;18.67;10.32;;;;;;;-148.22;100.00;64452.44;4964814;28;20437;-73
2021/09/22 05:12:57;;;;;;;17.83;10.63;;;;;;;-148.22;100.00;64452.44;4962736;28;20026;-73
2021/09/22 05:15:22;;;;;;;16.98;10.68;;;;;;;-148.22;100.00;64452.44;4961578;28;20030;-72
2021/09/22 05:17:47;;;;;;;17.67;10.35;;;;;;;-148.22;100.00;64452.44;4957550;28;20031;-73
2021/09/22 05:20:13;;;;;;;16.23;10.88;;;;;;;-148.22;100.00;64452.44;4971245;28;20031;-74
2021/09/22 05:22:38;;;;;;;17.35;9.88;;;;;;;-148.22;100.00;64452.44;4958652;28;20449;-72
2021/09/22 05:25:04;;;;;;;17.02;10.75;;;;;;;-148.22;100.00;64452.44;4962008;28;20122;-72
2021/09/22 05:27:30;;;;;;;16.80;11.18;;;;;;;-148.22;100.00;64452.44;4964450;28;20489;-72
2021/09/22 05:29:55;;;;;;;19.08;10.55;;;;;;;-148.22;100.00;64452.44;4967386;28;20037;-73
2021/09/22 05:32:21;;;;;;;18.35;10.50;;;;;;;-148.22;100.00;64452.44;4966938;28;20054;-72
2021/09/22 05:34:46;;;;;;;20.40;11.85;;;;;;;-148.22;100.00;64452.44;4966690;28;20226;-73
2021/09/22 05:37:11;;;;;;;19.48;10.73;;;;;;;-148.22;100.00;64452.44;4967096;28;20066;-73
2021/09/22 05:39:39;;;;;;;16.52;11.23;;;;;;;-148.22;100.00;64452.44;4967752;28;20033;-72
2021/09/22 05:42:04;;;;;;;18.30;10.27;;;;;;;-148.22;100.00;64452.44;4960705;28;20015;-74
2021/09/22 05:44:29;;;;;;;18.80;10.82;;;;;;;-148.22;100.00;64452.44;4966225;28;20050;-73
2021/09/22 05:46:55;;;;;;;18.85;11.77;;;;;;;-148.22;100.00;64452.44;4967303;28;20033;-72
2021/09/22 05:49:20;;;;;;;19.02;11.98;;;;;;;-148.22;100.00;64452.44;4966182;28;20608;-73
2021/09/22 05:51:45;;;;;;;16.05;11.07;;;;;;;-148.22;100.00;64452.44;4961239;28;20059;-73
2021/09/22 05:54:11;;;;;;;19.63;11.85;;;;;;;-148.22;100.00;64452.44;4958508;28;20062;-74
2021/09/22 05:56:37;;;;;;;24.65;11.43;;;;;;;-148.22;100.00;64452.44;4968291;28;20037;-75
2021/09/22 05:59:03;;;;;;;21.02;11.75;;;;;;;-148.22;100.00;64452.44;4975818;28;20536;-72
2021/09/22 06:01:28;;;;;;;19.25;11.73;;;;;;;-148.22;100.00;64452.44;4959525;28;20026;-75
2021/09/22 06:03:53;;;;;;;15.32;8.73;;;;;;;-148.22;100.00;64452.44;4953193;28;20030;-74
2021/09/22 06:06:19;;;;;;;19.17;11.75;;;;;;;-148.22;100.00;64452.44;4961443;28;20532;-76
2021/09/22 06:08:44;;;;;;;20.50;11.95;;;;;;;-148.22;100.00;64452.44;4953232;28;20491;-73
2021/09/22 06:11:10;;;;;;;21.88;12.95;;;;;;;-148.22;100.00;64452.44;4965751;28;20469;-75
2021/09/22 06:13:35;;;;;;;18.65;11.90;;;;;;;-148.22;100.00;64452.44;4953226;28;20038;-75
2021/09/22 06:16:01;;;;;;;21.17;12.18;;;;;;;-148.22;100.00;64452.44;4966253;28;20453;-74
2021/09/22 06:18:26;;;;;;;19.30;12.25;;;;;;;-148.22;100.00;64452.44;4961762;28;20039;-75
2021/09/22 06:20:52;;;;;;;22.05;13.85;;;;;;;-148.22;100.00;64452.44;4965080;28;20556;-75
2021/09/22 06:23:17;;;;;;;19.85;12.48;;;;;;;-148.22;100.00;64452.44;4962634;28;20331;-75
2021/09/22 06:25:43;;;;;;;19.35;11.30;;;;;;;-148.22;100.00;64452.44;4969440;28;20034;-75
2021/09/22 06:28:08;;;;;;;20.08;12.00;;;;;;;-148.22;100.00;64452.44;4976141;28;20050;-75
2021/09/22 06:30:34;;;;;;;21.98;12.30;;;;;;;-148.22;100.00;64452.44;4966135;28;20536;-75
2021/09/22 06:32:59;;;;;;;22.30;13.52;;;;;;;-148.22;100.00;64452.44;4966190;28;20093;-75
2021/09/22 06:35:25;;;;;;;23.33;12.93;;;;;;;-148.22;100.00;64452.44;4965384;28;20473;-74
2021/09/22 06:37:51;;;;;;;18.42;10.93;;;;;;;-148.22;100.00;64452.44;4959959;28;20026;-75
2021/09/22 06:40:18;;;;;;;20.05;12.73;;;;;;;-148.22;100.00;64452.44;4955521;28;20062;-74
2021/09/22 06:42:45;;;;;;;23.67;12.65;;;;;;;-148.22;100.00;64452.44;4966145;28;20531;-76
2021/09/22 06:45:10;;;;;;;20.33;13.30;;;;;;;-148.22;100.00;64452.44;4964775;28;20751;-74
2021/09/22 06:47:36;;;;;;;21.88;13.48;;;;;;;-148.22;100.00;64452.44;4957745;28;20066;-75
2021/09/22 06:50:02;;;;;;;23.35;12.95;;;;;;;-148.22;100.00;64452.44;4972686;28;20129;-74
2021/09/22 06:52:29;;;;;;;22.52;13.18;;;;;;;-148.22;100.00;64452.44;4963874;28;20155;-75
2021/09/22 06:54:55;;;;;;;20.63;12.43;;;;;;;-148.22;100.00;64452.44;4965883;28;20074;-75
2021/09/22 06:57:20;;;;;;;22.83;12.88;;;;;;;-148.22;100.00;64452.44;4968919;28;20105;-75
2021/09/22 06:59:46;;;;;;;19.80;12.68;;;;;;;-148.22;100.00;64452.44;4966034;28;20034;-75
2021/09/22 07:02:11;;;;;;;19.15;12.40;;;;;;;-148.22;100.00;64452.44;4964724;28;20030;-74
2021/09/22 07:04:36;;;;;;;21.20;12.85;;;;;;;-148.22;100.00;64452.44;4963325;28;20061;-75
2021/09/22 07:07:02;;;;;;;21.17;12.85;;;;;;;-148.22;100.00;64452.44;4964086;28;20492;-75
2021/09/22 07:09:27;;;;;;;21.20;12.80;;;;;;;-148.22;100.00;64452.44;4965138;28;20030;-74
2021/09/22 07:11:53;;;;;;;19.67;12.07;;;;;;;-148.22;100.00;64452.44;4963998;28;20081;-73
2021/09/22 07:14:18;;;;;;;22.60;13.00;;;;;;;-148.22;100.00;64452.44;4966105;28;20544;-74
2021/09/22 07:16:43;;;;;;;20.27;12.40;;;;;;;-148.22;100.00;64452.44;4964818;28;20509;-73
2021/09/22 07:19:09;;;;;;;18.65;11.80;;;;;;;-148.22;100.00;64452.44;4965498;28;20030;-74
2021/09/22 07:21:35;;;;;;;19.75;12.82;;;;;;;-148.22;100.00;64452.44;4964601;28;20031;-75
2021/09/22 07:24:01;;;;;;;19.02;12.38;;;;;;;-148.22;100.00;64452.44;4965761;28;20054;-74
2021/09/22 07:26:26;;;;;;;19.77;13.65;;;;;;;-148.22;100.00;64452.44;4965436;28;20027;-74
2021/09/22 07:28:52;;;;;;;21.90;13.80;;;;;;;-148.22;100.00;64452.44;4963549;28;20599;-74
2021/09/22 07:31:17;;;;;;;21.90;13.07;;;;;;;-148.22;100.00;64452.44;4962577;28;20039;-75
2021/09/22 07:33:43;;;;;;;20.50;13.15;;;;;;;-148.22;100.00;64452.44;4951237;28;20051;-75
2021/09/22 07:36:10;;;;;;;19.38;12.98;;;;;;;-148.22;100.00;64452.44;4962910;28;20030;-74
2021/09/22 07:38:35;;;;;;;21.10;13.73;;;;;;;-148.22;100.00;64452.44;4962965;28;20042;-75
2021/09/22 07:41:02;;;;;;;18.33;12.70;;;;;;;-148.22;100.00;64452.44;4961046;28;20023;-75
2021/09/22 07:43:28;;;;;;;19.60;12.10;;;;;;;-148.22;100.00;64452.44;4962797;28;20038;-74
2021/09/22 07:45:54;;;;;;;19.30;11.52;;;;;;;-148.22;100.00;64452.44;4960953;28;20682;-73
2021/09/22 07:48:21;;;;;;;18.30;11.35;;;;;;;-148.22;100.00;64452.44;4973608;23;20026;-75
2021/09/22 07:50:47;;;;;;;14.65;10.20;;;;;;;-148.22;100.00;64452.44;4960738;28;20097;-74
2021/09/22 07:53:12;;;;;;;15.40;10.52;;;;;;;-148.22;100.00;64452.44;4942856;28;20437;-74
2021/09/22 07:55:38;;;;;;;13.50;9.45;;;;;;;-148.22;100.00;64452.44;4964714;28;20033;-73
2021/09/22 07:58:03;;;;;;;14.75;10.48;;;;;;;-148.22;100.00;64452.44;4963607;28;20744;-73
2021/09/22 08:00:29;;;;;;;16.38;10.52;;;;;;;-148.22;100.00;64452.44;4957944;28;20566;-74
2021/09/22 08:02:54;;;;;;;17.85;10.88;;;;;;;-148.22;100.00;64452.44;4963291;28;20117;-73
2021/09/22 08:05:20;;;;;;;15.27;10.73;;;;;;;-148.22;100.00;64452.44;4965509;28;20034;-72
2021/09/22 08:07:46;;;;;;;16.73;10.23;;;;;;;-148.22;100.00;64452.44;4958040;28;20077;-73
2021/09/22 08:10:13;;;;;;;13.50;8.80;;;;;;;-148.22;100.00;64452.44;4961521;28;20050;-74
2021/09/22 08:12:38;;;;;;;13.48;9.18;;;;;;;-148.22;100.00;64452.44;4950157;28;20054;-74
2021/09/22 08:15:04;;;;;;;11.82;8.88;;;;;;;-148.22;100.00;64452.44;4963434;28;20054;-74
2021/09/22 08:17:30;;;;;;;13.48;8.52;;;;;;;-148.22;100.00;64452.44;4974488;28;20122;-74
2021/09/22 08:19:55;;;;;;;13.95;9.60;;;;;;;-148.22;100.00;64452.44;4947151;28;20160;-74
2021/09/22 08:22:21;;;;;;;11.18;8.93;;;;;;;-148.22;100.00;64452.44;4957998;28;20047;-74
2021/09/22 08:24:46;;;;;;;13.13;9.20;;;;;;;-148.22;100.00;64452.44;4961903;28;20138;-75
2021/09/22 08:27:13;;;;;;;12.68;8.65;;;;;;;-148.22;100.00;64452.44;4949635;28;20045;-76
2021/09/22 08:29:38;;;;;;;14.57;9.10;;;;;;;-148.22;100.00;64452.44;4943693;28;20048;-73
2021/09/22 08:32:04;;;;;;;12.18;9.15;;;;;;;-148.22;100.00;64452.44;4957259;28;20146;-75
2021/09/22 08:34:29;;;;;;;12.82;8.77;;;;;;;-148.22;100.00;64452.44;4954989;28;20051;-75
2021/09/22 08:36:55;;;;;;;14.98;8.82;;;;;;;-148.22;100.00;64452.44;4964144;28;20161;-73
2021/09/22 08:39:20;;;;;;;17.95;9.20;;;;;;;-148.22;100.00;64452.44;4953233;28;20070;-74
2021/09/22 08:41:48;;;;;;;16.13;8.98;;;;;;;-148.22;100.00;64452.44;4958608;28;20424;-73
2021/09/22 08:44:14;;;;;;;13.07;8.23;;;;;;;-148.22;100.00;64452.44;4961763;28;20050;-73
2021/09/22 08:46:41;;;;;;;15.27;8.15;;;;;;;-148.22;100.00;64452.44;4960674;28;20778;-74
2021/09/22 08:49:07;;;;;;;17.75;7.55;;;;;;;-148.22;100.00;64452.44;4960096;28;20711;-75
2021/09/22 08:51:34;;;;;;;12.98;9.13;;;;;;;-148.22;100.00;64452.44;4950488;28;20559;-74
2021/09/22 08:54:00;;;;;;;13.13;8.25;;;;;;;-148.22;100.00;64452.44;4956581;28;20026;-75
2021/09/22 08:56:26;;;;;;;11.48;8.90;;;;;;;-148.22;100.00;64452.44;4962790;28;20082;-73
2021/09/22 08:58:51;;;;;;;14.27;8.30;;;;;;;-148.22;100.00;64452.44;4954715;28;20437;-74
2021/09/22 09:01:20;;;;;;;14.52;7.63;;;;;;;-148.22;100.00;64452.44;4955939;28;20624;-73
2021/09/22 09:03:46;;;;;;;10.23;7.18;;;;;;;-148.22;100.00;64452.44;4967112;28;20058;-81
2021/09/22 09:06:22;;;;;;;11.15;7.72;;;;;;;-148.22;100.00;64452.44;4950904;28;20033;-82
2021/09/22 09:08:48;;;;;;;10.80;7.30;;;;;;;-148.22;100.00;64452.44;4963089;28;20059;-80
2021/09/22 09:11:14;;;;;;;11.48;7.15;;;;;;;-148.22;100.00;64452.44;4954487;28;20073;-78
2021/09/22 09:13:46;;;;;;;8.95;7.18;;;;;;;-148.22;100.00;64452.44;4939148;28;20101;-81
2021/09/22 09:16:17;;;;;;;8.07;5.90;;;;;;;-148.22;100.00;64452.44;4953562;28;20042;-79
2021/09/22 09:18:51;;;;;;;7.53;5.60;;;;;;;-148.22;100.00;64452.44;4943638;28;20517;-78
2021/09/22 09:21:16;;;;;;;11.23;6.50;;;;;;;-148.22;100.00;64452.44;4957038;28;20046;-79
2021/09/22 09:23:51;;;;;;;10.60;6.78;;;;;;;-148.22;100.00;64452.44;4962969;28;20042;-75
2021/09/22 09:26:20;;;;;;;12.00;6.13;;;;;;;-148.22;100.00;64452.44;4937366;28;20031;-79
2021/09/22 09:28:50;;;;;;;7.63;5.40;;;;;;;-148.22;100.00;64452.44;4956404;28;20045;-72
2021/09/22 09:31:15;;;;;;;8.60;5.60;;;;;;;-148.22;100.00;64452.44;4963490;28;20035;-71
2021/09/22 09:33:43;;;;;;;13.32;5.90;;;;;;;-148.22;100.00;64452.44;4945878;28;20039;-77
2021/09/22 09:36:17;;;;;;;10.38;6.28;;;;;;;-148.22;100.00;64452.44;4945124;28;20066;-73
2021/09/22 09:38:50;;;;;;;10.13;5.80;;;;;;;-148.22;100.00;64452.44;4961012;28;20468;-73
2021/09/22 09:41:28;;;;;;;12.18;6.22;;;;;;;-148.22;100.00;64452.44;4958640;28;20451;-73
2021/09/22 09:43:53;;;;;;;12.13;6.47;;;;;;;-148.22;100.00;64452.44;4970041;28;20031;-74
2021/09/22 09:46:24;;;;;;;10.63;5.65;;;;;;;-148.22;100.00;64452.44;4950161;28;20455;-73
2021/09/22 09:48:58;;;;;;;10.02;6.22;;;;;;;-148.22;100.00;64452.44;4934300;29;20401;-74
2021/09/22 09:51:38;;;;;;;9.65;5.82;;;;;;;-148.22;100.00;64452.44;4949272;28;20034;-72
2021/09/22 09:54:10;;;;;;;8.57;5.25;;;;;;;-148.22;100.00;64452.44;4967940;28;20022;-73
2021/09/22 09:56:36;;;;;;;8.75;5.38;;;;;;;-148.22;100.00;64452.44;4954265;28;20097;-73
2021/09/22 09:59:03;;;;;;;13.02;5.82;;;;;;;-148.22;100.00;64452.44;4968678;28;20031;-77
2021/09/22 10:01:36;;;;;;;16.10;6.18;;;;;;;-148.22;100.00;64452.44;4979654;28;20028;-78
2021/09/22 10:04:02;;;;;;;7.57;5.13;;;;;;;-148.22;100.00;64452.44;4954773;28;20095;-78
2021/09/22 10:06:28;;;;;;;9.02;5.05;;;;;;;-148.22;100.00;64452.44;4962486;28;20046;-75
2021/09/22 10:08:54;;;;;;;7.50;4.88;;;;;;;-148.22;100.00;64452.44;4955677;28;20038;-76
2021/09/22 10:11:20;;;;;;;10.05;5.22;;;;;;;-148.22;100.00;64452.44;4969361;28;20038;-74
2021/09/22 10:13:46;;;;;;;8.35;5.40;;;;;;;-148.22;100.00;64452.44;4960064;28;20030;-77
2021/09/22 10:16:11;;;;;;;14.18;5.88;;;;;;;-148.22;100.00;64452.44;4940601;28;20055;-75
2021/09/22 10:18:36;;;;;;;9.43;4.90;;;;;;;-148.22;100.00;64452.44;4964381;28;20676;-75
2021/09/22 10:21:02;;;;;;;9.20;5.10;;;;;;;-148.22;100.00;64452.44;4947110;28;20045;-75
2021/09/22 10:23:28;;;;;;;9.48;4.50;;;;;;;-148.22;100.00;64452.44;4956855;28;20046;-75
2021/09/22 10:25:53;;;;;;;6.20;3.83;;;;;;;-148.22;100.00;64452.44;4963844;28;20034;-74
2021/09/22 10:28:39;;;;;;;6.57;3.90;;;;;;;-148.22;100.00;64452.44;4955043;28;20042;-74
2021/09/22 10:31:14;;;;;;;7.60;4.43;;;;;;;-148.22;100.00;64452.44;4960461;28;20031;-74
2021/09/22 10:33:43;;;;;;;6.07;4.15;;;;;;;-148.22;100.00;64452.44;4962104;28;20624;-74
2021/09/22 10:36:09;;;;;;;8.52;4.78;;;;;;;-148.22;100.00;64452.44;4962521;28;20533;-77
2021/09/22 10:38:42;;;;;;;10.43;4.38;;;;;;;-148.22;100.00;64452.44;4964350;28;20033;-77
2021/09/22 10:41:09;;;;;;;7.85;3.90;;;;;;;-148.22;100.00;64452.44;4963067;28;20038;-76
2021/09/22 10:43:43;;;;;;;4.88;3.60;;;;;;;-148.22;100.00;64452.44;4954570;28;20061;-77
2021/09/22 10:46:15;;;;;;;6.15;4.20;;;;;;;-148.22;100.00;64452.44;4962864;28;20037;-79
2021/09/22 10:48:57;;;;;;;10.23;4.85;;;;;;;-148.22;100.00;64452.44;4962258;28;20026;-79
2021/09/22 10:51:31;;;;;;;8.63;4.43;;;;;;;-148.22;100.00;64452.44;4973161;28;20023;-79
2021/09/22 10:54:10;;;;;;;7.63;4.95;;;;;;;-148.22;100.00;64452.44;4966523;28;20026;-77
2021/09/22 10:57:04;;;;;;;8.00;4.90;;;;;;;-148.22;100.00;64452.44;4962474;28;20042;-77